Time;durP1;ratioP1;P1;durP2;ratioP2;P2;SDS_P1;SDS_P2;PMS_P1;PMS_P2;Temp;Humidity;BMP_temperature;BMP_pressure;BME280_temperature;BME280_humidity;BME280_pressure;Samples;Min_cycle;Max_cycle;Signal;HPM_P1;HPM_P2
2022/04/07 00:02:01;;;;;;;;;;;18.90;51.30;;;;;;5020786;28;20300;-65
2022/04/07 00:04:27;;;;;;;;;;;18.90;51.30;;;;;;5019244;28;19925;-65
2022/04/07 00:06:52;;;;;;;;;;;18.90;51.30;;;;;;5039325;28;19923;-64
2022/04/07 00:09:18;;;;;;;;;;;18.90;51.40;;;;;;5030579;28;20573;-61
2022/04/07 00:11:43;;;;;;;;;;;18.90;51.30;;;;;;5007220;28;19913;-64
2022/04/07 00:14:09;;;;;;;;;;;18.90;51.30;;;;;;5020321;28;19928;-63
2022/04/07 00:16:34;;;;;;;;;;;18.90;51.40;;;;;;5044750;28;19962;-64
2022/04/07 00:19:00;;;;;;;;;;;18.90;51.40;;;;;;5034194;28;20265;-64
2022/04/07 00:21:25;;;;;;;;;;;18.90;51.30;;;;;;5013410;28;19913;-64
2022/04/07 00:23:51;;;;;;;;;;;18.90;51.30;;;;;;5014773;28;19913;-64
2022/04/07 00:26:16;;;;;;;;;;;18.90;51.30;;;;;;5044001;28;19912;-64
2022/04/07 00:28:42;;;;;;;;;;;18.90;51.40;;;;;;5037390;28;19925;-63
2022/04/07 00:31:08;;;;;;;;;;;18.90;51.40;;;;;;5008195;28;19917;-63
2022/04/07 00:33:34;;;;;;;;;;;18.90;51.40;;;;;;5009046;28;19917;-63
2022/04/07 00:35:59;;;;;;;;;;;18.90;51.40;;;;;;5024212;28;20282;-61
2022/04/07 00:38:24;;;;;;;;;;;18.90;51.40;;;;;;5039143;28;19956;-64
2022/04/07 00:40:50;;;;;;;;;;;18.90;51.40;;;;;;5017744;28;20134;-63
2022/04/07 00:43:31;;;;;;;;;;;18.90;51.40;;;;;;5004500;28;20236;-65
2022/04/07 00:45:57;;;;;;;;;;;18.90;51.50;;;;;;5024009;28;20008;-64
2022/04/07 00:48:22;;;;;;;;;;;18.80;51.30;;;;;;5022907;28;20003;-62
2022/04/07 00:50:48;;;;;;;;;;;18.90;51.40;;;;;;5004091;28;19918;-65
2022/04/07 00:53:13;;;;;;;;;;;18.90;51.50;;;;;;5004265;28;19928;-63
2022/04/07 00:55:38;;;;;;;;;;;18.80;51.40;;;;;;5038282;28;20274;-64
2022/04/07 00:58:04;;;;;;;;;;;18.90;51.40;;;;;;5024134;28;19913;-63
2022/04/07 01:00:30;;;;;;;;;;;18.90;51.50;;;;;;5023465;28;19917;-63
2022/04/07 01:02:56;;;;;;;;;;;18.80;51.40;;;;;;5004565;28;19944;-64
2022/04/07 01:05:23;;;;;;;;;;;18.90;51.50;;;;;;5022005;28;20360;-63
2022/04/07 01:07:49;;;;;;;;;;;18.80;51.40;;;;;;5023871;28;19917;-63
2022/04/07 01:10:14;;;;;;;;;;;18.80;51.40;;;;;;5025288;28;19916;-59
2022/04/07 01:12:39;;;;;;;;;;;18.80;51.40;;;;;;5014031;28;20196;-63
2022/04/07 01:15:05;;;;;;;;;;;18.80;51.50;;;;;;5026620;28;19924;-65
2022/04/07 01:17:31;;;;;;;;;;;18.80;51.50;;;;;;5043017;28;20290;-65
2022/04/07 01:19:56;;;;;;;;;;;18.80;51.40;;;;;;5033420;28;20012;-63
2022/04/07 01:22:22;;;;;;;;;;;18.80;51.40;;;;;;5009276;28;19924;-64
2022/04/07 01:24:47;;;;;;;;;;;18.80;51.40;;;;;;5037855;28;19944;-64
2022/04/07 01:27:13;;;;;;;;;;;18.80;51.40;;;;;;5023583;28;19917;-64
2022/04/07 01:29:38;;;;;;;;;;;18.80;51.50;;;;;;5033863;28;20047;-63
2022/04/07 01:32:07;;;;;;;;;;;18.80;51.50;;;;;;5018028;28;19924;-64
2022/04/07 01:34:32;;;;;;;;;;;18.80;51.50;;;;;;5011548;28;20023;-64
2022/04/07 01:36:58;;;;;;;;;;;18.80;51.50;;;;;;5022977;28;20016;-64
2022/04/07 01:39:26;;;;;;;;;;;18.80;51.50;;;;;;5038360;28;19952;-64
2022/04/07 01:41:52;;;;;;;;;;;18.80;51.50;;;;;;5017016;28;19916;-63
2022/04/07 01:44:17;;;;;;;;;;;18.80;51.50;;;;;;5003701;28;19909;-64
2022/04/07 01:46:43;;;;;;;;;;;18.80;51.50;;;;;;5023042;28;19975;-63
2022/04/07 01:49:08;;;;;;;;;;;18.80;51.50;;;;;;5021977;28;20342;-62
2022/04/07 01:51:34;;;;;;;;;;;18.80;51.50;;;;;;5005025;28;19913;-64
2022/04/07 01:53:59;;;;;;;;;;;18.80;51.50;;;;;;5002540;28;20430;-65
2022/04/07 01:56:25;;;;;;;;;;;18.80;51.50;;;;;;5005324;28;19918;-64
2022/04/07 01:58:50;;;;;;;;;;;18.80;51.50;;;;;;5021810;28;19913;-63
2022/04/07 02:01:16;;;;;;;;;;;18.80;51.50;;;;;;5024974;28;19921;-64
2022/04/07 02:03:41;;;;;;;;;;;18.80;51.50;;;;;;5002844;28;19921;-65
2022/04/07 02:06:13;;;;;;;;;;;18.80;51.50;;;;;;5023807;28;20275;-63
2022/04/07 02:08:39;;;;;;;;;;;18.80;51.50;;;;;;5033307;28;20152;-60
2022/04/07 02:11:04;;;;;;;;;;;18.80;51.50;;;;;;5031562;28;20348;-63
2022/04/07 02:13:33;;;;;;;;;;;18.80;51.60;;;;;;5011354;28;19924;-63
2022/04/07 02:15:59;;;;;;;;;;;18.80;51.60;;;;;;5012826;28;19975;-64
2022/04/07 02:18:25;;;;;;;;;;;18.70;51.60;;;;;;5035964;28;19916;-64
2022/04/07 02:20:50;;;;;;;;;;;18.70;51.60;;;;;;5033839;28;20394;-63
2022/04/07 02:23:16;;;;;;;;;;;18.70;51.80;;;;;;5008811;28;19944;-63
2022/04/07 02:25:41;;;;;;;;;;;18.70;51.90;;;;;;5008835;28;19910;-64
2022/04/07 02:28:06;;;;;;;;;;;18.60;52.10;;;;;;5023635;28;20372;-64
2022/04/07 02:30:32;;;;;;;;;;;18.50;52.20;;;;;;5016721;28;19949;-64
2022/04/07 02:32:57;;;;;;;;;;;18.50;52.30;;;;;;5002494;28;19949;-63
2022/04/07 02:35:23;;;;;;;;;;;18.40;52.40;;;;;;5020062;28;20699;-64
2022/04/07 02:37:48;;;;;;;;;;;18.40;52.50;;;;;;5021941;28;19913;-63
2022/04/07 02:40:14;;;;;;;;;;;18.40;52.50;;;;;;5034415;28;19919;-63
2022/04/07 02:42:39;;;;;;;;;;;18.40;52.60;;;;;;5018599;28;19953;-62
2022/04/07 02:45:05;;;;;;;;;;;18.40;52.60;;;;;;5002740;28;20368;-64
2022/04/07 02:47:31;;;;;;;;;;;18.40;52.70;;;;;;5031678;28;19931;-64
2022/04/07 02:49:56;;;;;;;;;;;18.40;52.70;;;;;;5041530;28;19924;-60
2022/04/07 02:52:22;;;;;;;;;;;18.30;52.80;;;;;;5021784;28;20161;-64
2022/04/07 02:54:47;;;;;;;;;;;18.30;52.80;;;;;;5002304;28;19917;-63
2022/04/07 02:57:13;;;;;;;;;;;18.30;52.90;;;;;;5025643;28;20725;-63
2022/04/07 02:59:38;;;;;;;;;;;18.30;52.90;;;;;;5041670;28;19939;-64
2022/04/07 03:02:04;;;;;;;;;;;18.30;52.90;;;;;;5030035;28;21639;-64
2022/04/07 03:04:29;;;;;;;;;;;18.30;52.90;;;;;;5020325;28;19909;-64
2022/04/07 03:06:55;;;;;;;;;;;18.30;53.00;;;;;;5023864;28;19935;-63
2022/04/07 03:09:20;;;;;;;;;;;18.30;53.00;;;;;;5045043;28;19915;-62
2022/04/07 03:11:46;;;;;;;;;;;18.30;53.00;;;;;;5036925;28;19928;-64
2022/04/07 03:14:12;;;;;;;;;;;18.30;53.10;;;;;;5013949;28;19995;-65
2022/04/07 03:16:37;;;;;;;;;;;18.30;53.10;;;;;;5014123;28;19978;-63
2022/04/07 03:19:03;;;;;;;;;;;18.30;53.10;;;;;;5025073;28;20375;-65
2022/04/07 03:21:28;;;;;;;;;;;18.30;53.00;;;;;;5019823;28;20285;-63
2022/04/07 03:23:54;;;;;;;;;;;18.20;53.00;;;;;;5005601;28;19922;-63
2022/04/07 03:26:19;;;;;;;;;;;18.20;53.00;;;;;;5009121;28;19967;-64
2022/04/07 03:28:45;;;;;;;;;;;18.20;53.10;;;;;;5024926;28;19948;-63
2022/04/07 03:31:10;;;;;;;;;;;18.30;53.20;;;;;;5024258;28;19913;-63
2022/04/07 03:33:36;;;;;;;;;;;18.20;53.10;;;;;;5013363;28;19932;-63
2022/04/07 03:36:01;;;;;;;;;;;18.20;53.10;;;;;;5016691;28;19960;-65
2022/04/07 03:38:27;;;;;;;;;;;18.20;53.00;;;;;;5005427;28;19909;-64
2022/04/07 03:40:53;;;;;;;;;;;18.20;53.10;;;;;;5005805;28;19913;-63
2022/04/07 03:43:18;;;;;;;;;;;18.20;53.10;;;;;;5022968;28;20338;-63
2022/04/07 03:45:44;;;;;;;;;;;18.20;53.10;;;;;;5040600;28;19990;-63
2022/04/07 03:48:10;;;;;;;;;;;18.20;53.10;;;;;;5029514;28;19923;-64
2022/04/07 03:50:35;;;;;;;;;;;18.20;53.10;;;;;;5004657;28;19917;-64
2022/04/07 03:53:01;;;;;;;;;;;18.20;53.10;;;;;;5026344;28;19924;-64
2022/04/07 03:55:26;;;;;;;;;;;18.20;53.10;;;;;;5044907;28;19970;-63
2022/04/07 03:57:52;;;;;;;;;;;18.20;53.10;;;;;;5033309;28;19944;-64
2022/04/07 04:00:18;;;;;;;;;;;18.20;53.10;;;;;;5019215;28;19909;-63
2022/04/07 04:02:43;;;;;;;;;;;18.20;53.10;;;;;;5023532;28;20675;-63
2022/04/07 04:05:09;;;;;;;;;;;18.20;53.00;;;;;;5040533;28;19917;-58
2022/04/07 04:07:34;;;;;;;;;;;18.20;53.10;;;;;;5017098;28;20403;-65
2022/04/07 04:10:00;;;;;;;;;;;18.20;53.00;;;;;;5025010;28;19913;-64
2022/04/07 04:12:26;;;;;;;;;;;18.20;52.90;;;;;;5025686;28;20098;-65
2022/04/07 04:14:51;;;;;;;;;;;18.30;52.90;;;;;;5016852;28;19914;-64
2022/04/07 04:17:16;;;;;;;;;;;18.30;52.90;;;;;;5010639;28;19917;-64
2022/04/07 04:19:42;;;;;;;;;;;18.30;52.80;;;;;;5024301;28;19920;-63
2022/04/07 04:22:07;;;;;;;;;;;18.30;52.80;;;;;;5039647;28;19917;-63
2022/04/07 04:24:33;;;;;;;;;;;18.30;52.80;;;;;;5017668;28;20439;-59
2022/04/07 04:26:58;;;;;;;;;;;18.30;52.70;;;;;;5004769;28;19961;-67
2022/04/07 04:29:24;;;;;;;;;;;18.30;52.70;;;;;;5038678;28;19909;-63
2022/04/07 04:31:49;;;;;;;;;;;18.30;52.60;;;;;;5044101;28;20140;-63
2022/04/07 04:34:15;;;;;;;;;;;18.30;52.60;;;;;;5018868;28;19987;-63
2022/04/07 04:36:40;;;;;;;;;;;18.30;52.60;;;;;;5003774;28;19941;-63
2022/04/07 04:39:05;;;;;;;;;;;18.30;52.70;;;;;;5032588;28;20370;-64
2022/04/07 04:41:31;;;;;;;;;;;18.30;52.70;;;;;;5044239;28;19916;-63
2022/04/07 04:43:56;;;;;;;;;;;18.30;52.70;;;;;;5029427;28;19980;-63
2022/04/07 04:46:22;;;;;;;;;;;18.30;52.80;;;;;;5007154;28;20337;-58
2022/04/07 04:48:47;;;;;;;;;;;18.30;52.90;;;;;;5031400;28;19940;-62
2022/04/07 04:51:13;;;;;;;;;;;18.30;52.90;;;;;;5042328;28;20634;-65
2022/04/07 04:53:38;;;;;;;;;;;18.40;52.80;;;;;;5034138;28;19971;-62
2022/04/07 04:56:04;;;;;;;;;;;18.40;52.90;;;;;;5018628;28;19992;-65
2022/04/07 04:58:29;;;;;;;;;;;18.40;53.00;;;;;;5017196;28;20165;-58
2022/04/07 05:00:55;;;;;;;;;;;18.40;53.10;;;;;;5042713;28;19913;-58
2022/04/07 05:03:20;;;;;;;;;;;18.40;53.10;;;;;;5036572;28;20331;-62
2022/04/07 05:05:46;;;;;;;;;;;18.40;53.20;;;;;;5010401;28;19965;-62
2022/04/07 05:08:11;;;;;;;;;;;18.40;53.20;;;;;;5008902;28;19936;-62
2022/04/07 05:10:39;;;;;;;;;;;18.50;53.20;;;;;;5043652;28;20114;-58
2022/04/07 05:13:04;;;;;;;;;;;18.50;53.20;;;;;;5040891;28;19928;-67
2022/04/07 05:15:30;;;;;;;;;;;18.50;53.10;;;;;;5015513;28;20020;-61
2022/04/07 05:17:55;;;;;;;;;;;18.50;53.10;;;;;;5005399;28;20419;-63
2022/04/07 05:20:21;;;;;;;;;;;18.50;53.10;;;;;;5022803;28;19921;-64
2022/04/07 05:22:46;;;;;;;;;;;18.50;53.30;;;;;;5023758;28;20092;-64
2022/04/07 05:25:12;;;;;;;;;;;18.50;53.60;;;;;;5003774;28;19914;-57
2022/04/07 05:27:38;;;;;;;;;;;18.60;53.90;;;;;;5018768;28;20445;-63
2022/04/07 05:30:04;;;;;;;;;;;18.60;54.10;;;;;;5033061;28;20007;-63
2022/04/07 05:32:29;;;;;;;;;;;18.60;54.30;;;;;;5042523;28;19917;-63
2022/04/07 05:34:54;;;;;;;;;;;18.60;54.50;;;;;;5016645;28;19963;-63
2022/04/07 05:37:20;;;;;;;;;;;18.60;54.60;;;;;;4983421;28;19910;-63
2022/04/07 05:39:46;;;;;;;;;;;18.60;54.70;;;;;;5018782;28;20608;-63
2022/04/07 05:42:11;;;;;;;;;;;18.50;54.50;;;;;;5042796;28;19927;-64
2022/04/07 05:44:37;;;;;;;;;;;18.50;54.60;;;;;;5030601;28;19913;-65
2022/04/07 05:47:02;;;;;;;;;;;18.50;54.60;;;;;;5016569;28;19920;-64
2022/04/07 05:49:28;;;;;;;;;;;18.40;54.60;;;;;;5002078;28;19917;-64
2022/04/07 05:51:56;;;;;;;;;;;18.40;54.70;;;;;;5003239;28;19916;-62
2022/04/07 05:54:21;;;;;;;;;;;18.40;54.60;;;;;;5011214;28;19913;-63
2022/04/07 05:56:47;;;;;;;;;;;18.40;54.40;;;;;;5039672;28;19913;-63
2022/04/07 05:59:12;;;;;;;;;;;18.30;54.60;;;;;;5034893;28;20610;-65
2022/04/07 06:01:38;;;;;;;;;;;18.30;54.80;;;;;;5011122;28;19909;-64
2022/04/07 06:04:03;;;;;;;;;;;18.30;54.80;;;;;;5006803;28;19917;-63
2022/04/07 06:06:29;;;;;;;;;;;18.30;54.80;;;;;;5022478;28;19964;-65
2022/04/07 06:08:54;;;;;;;;;;;18.30;54.80;;;;;;5037803;28;20621;-65
2022/04/07 06:11:20;;;;;;;;;;;18.20;54.80;;;;;;5013264;28;19910;-65
2022/04/07 06:13:45;;;;;;;;;;;18.20;54.60;;;;;;5002859;28;19924;-62
2022/04/07 06:16:11;;;;;;;;;;;18.30;54.50;;;;;;5034947;28;20628;-62
2022/04/07 06:18:36;;;;;;;;;;;18.30;54.20;;;;;;5040761;28;20334;-58
2022/04/07 06:21:02;;;;;;;;;;;18.40;53.90;;;;;;5020553;28;19913;-63
2022/04/07 06:23:27;;;;;;;;;;;18.40;53.80;;;;;;5002502;28;20044;-64
2022/04/07 06:25:53;;;;;;;;;;;18.40;53.70;;;;;;5017409;28;19979;-63
2022/04/07 06:28:22;;;;;;;;;;;18.40;53.60;;;;;;5021471;28;19920;-61
2022/04/07 06:30:48;;;;;;;;;;;18.40;53.30;;;;;;5005941;28;19909;-63
2022/04/07 06:33:13;;;;;;;;;;;18.50;53.20;;;;;;5001873;28;20284;-63
2022/04/07 06:35:39;;;;;;;;;;;18.50;53.10;;;;;;5027814;28;19944;-63
2022/04/07 06:38:04;;;;;;;;;;;18.50;52.80;;;;;;5033115;28;19917;-61
2022/04/07 06:40:30;;;;;;;;;;;18.50;52.80;;;;;;5021047;28;20462;-64
2022/04/07 06:42:56;;;;;;;;;;;18.50;52.60;;;;;;5017132;28;19932;-62
2022/04/07 06:45:22;;;;;;;;;;;18.50;52.50;;;;;;5021154;28;19921;-64
2022/04/07 06:47:47;;;;;;;;;;;18.50;52.10;;;;;;5004626;28;19917;-64
2022/04/07 06:50:13;;;;;;;;;;;18.50;52.10;;;;;;5009435;28;19945;-64
2022/04/07 06:52:39;;;;;;;;;;;18.50;52.10;;;;;;5042038;28;19927;-63
2022/04/07 06:55:04;;;;;;;;;;;18.50;52.70;;;;;;5035514;28;19914;-63
2022/04/07 06:57:30;;;;;;;;;;;18.50;52.10;;;;;;5006351;28;20000;-62
2022/04/07 06:59:56;;;;;;;;;;;18.50;52.20;;;;;;5005059;28;19915;-61
2022/04/07 07:02:22;;;;;;;;;;;18.50;52.30;;;;;;5021578;28;19921;-58
2022/04/07 07:04:47;;;;;;;;;;;18.40;52.20;;;;;;5036556;28;20431;-63
2022/04/07 07:07:13;;;;;;;;;;;18.40;52.20;;;;;;5011881;28;19910;-61
2022/04/07 07:09:38;;;;;;;;;;;18.50;52.20;;;;;;5001350;28;19914;-60
2022/04/07 07:12:04;;;;;;;;;;;18.50;52.30;;;;;;5020711;28;19917;-62
2022/04/07 07:14:29;;;;;;;;;;;18.50;52.20;;;;;;5035585;28;20244;-62
2022/04/07 07:16:55;;;;;;;;;;;18.50;52.20;;;;;;5014786;28;19925;-61
2022/04/07 07:19:26;;;;;;;;;;;18.50;52.30;;;;;;5000983;28;19914;-63
2022/04/07 07:21:54;;;;;;;;;;;18.50;52.30;;;;;;5028558;28;20256;-58
2022/04/07 07:24:20;;;;;;;;;;;18.50;52.30;;;;;;5039454;28;19928;-64
2022/04/07 07:26:46;;;;;;;;;;;18.50;52.30;;;;;;5024466;28;19918;-63
2022/04/07 07:29:11;;;;;;;;;;;18.50;52.30;;;;;;5015922;28;19921;-63
2022/04/07 07:31:36;;;;;;;;;;;18.50;52.30;;;;;;5022029;28;19974;-64
2022/04/07 07:34:03;;;;;;;;;;;18.60;52.30;;;;;;5040985;28;23305;-64
2022/04/07 07:36:29;;;;;;;;;;;18.60;52.30;;;;;;5029026;28;19996;-58
2022/04/07 07:38:54;;;;;;;;;;;18.60;52.30;;;;;;5015251;28;19995;-64
2022/04/07 07:41:20;;;;;;;;;;;18.60;52.20;;;;;;5025505;28;20287;-63
2022/04/07 07:43:45;;;;;;;;;;;18.60;52.20;;;;;;5040958;28;19979;-61
2022/04/07 07:46:11;;;;;;;;;;;18.60;52.20;;;;;;5033158;28;19921;-64
2022/04/07 07:48:36;;;;;;;;;;;18.60;52.00;;;;;;5011411;28;19940;-62
2022/04/07 07:51:02;;;;;;;;;;;18.70;52.10;;;;;;5011607;28;20315;-55
2022/04/07 07:53:27;;;;;;;;;;;18.60;52.10;;;;;;5024970;28;19917;-64
2022/04/07 07:55:54;;;;;;;;;;;18.60;52.10;;;;;;5037634;28;19924;-62
2022/04/07 07:58:20;;;;;;;;;;;18.70;52.10;;;;;;5015319;28;20632;-66
2022/04/07 08:00:46;;;;;;;;;;;18.70;52.10;;;;;;5007218;28;19917;-63
2022/04/07 08:03:11;;;;;;;;;;;18.70;52.10;;;;;;5037277;28;20039;-64
2022/04/07 08:05:37;;;;;;;;;;;18.70;52.00;;;;;;5043865;28;19919;-62
2022/04/07 08:08:02;;;;;;;;;;;18.70;52.00;;;;;;5018131;28;20468;-62
2022/04/07 08:10:27;;;;;;;;;;;18.70;52.00;;;;;;5034899;28;19913;-62
2022/04/07 08:12:53;;;;;;;;;;;18.70;52.00;;;;;;5023486;28;19921;-63
2022/04/07 08:15:19;;;;;;;;;;;18.70;52.00;;;;;;5023811;28;19909;-62
2022/04/07 08:17:44;;;;;;;;;;;18.70;52.00;;;;;;5007693;28;20489;-62
2022/04/07 08:20:11;;;;;;;;;;;18.70;52.60;;;;;;5002765;28;19953;-61
2022/04/07 08:22:36;;;;;;;;;;;18.70;52.00;;;;;;5026587;28;19917;-64
2022/04/07 08:25:02;;;;;;;;;;;18.70;51.90;;;;;;5042545;28;19932;-64
2022/04/07 08:27:27;;;;;;;;;;;18.80;52.00;;;;;;5030612;28;20063;-62
2022/04/07 08:29:53;;;;;;;;;;;18.70;52.00;;;;;;5004925;28;20253;-64
2022/04/07 08:32:18;;;;;;;;;;;18.80;52.00;;;;;;5019865;28;19913;-61
2022/04/07 08:34:44;;;;;;;;;;;18.70;51.80;;;;;;5044185;28;19913;-62
2022/04/07 08:37:09;;;;;;;;;;;18.80;51.90;;;;;;5034632;28;19920;-62
2022/04/07 08:39:35;;;;;;;;;;;18.80;52.00;;;;;;5011775;28;20437;-63
2022/04/07 08:42:01;;;;;;;;;;;18.80;52.00;;;;;;5013600;28;19909;-63
2022/04/07 08:44:31;;;;;;;;;;;18.80;51.90;;;;;;5043405;28;19928;-63
2022/04/07 08:46:57;;;;;;;;;;;18.80;52.00;;;;;;5037054;28;19925;-62
2022/04/07 08:49:23;;;;;;;;;;;18.80;51.90;;;;;;5009785;28;20431;-62
2022/04/07 08:51:52;;;;;;;;;;;18.90;52.00;;;;;;5039317;28;20330;-64
2022/04/07 08:54:20;;;;;;;;;;;18.90;51.90;;;;;;5023828;28;19913;-62
2022/04/07 08:56:46;;;;;;;;;;;18.80;52.00;;;;;;5037281;28;20007;-64
2022/04/07 08:59:11;;;;;;;;;;;18.90;52.00;;;;;;5015258;28;20013;-63
2022/04/07 09:01:37;;;;;;;;;;;18.90;52.00;;;;;;5006861;28;19909;-62
2022/04/07 09:04:02;;;;;;;;;;;18.90;52.70;;;;;;5038953;28;20180;-62
2022/04/07 09:06:29;;;;;;;;;;;18.80;52.20;;;;;;5044041;28;19966;-62
2022/04/07 09:08:54;;;;;;;;;;;18.80;52.20;;;;;;5017984;28;20428;-58
2022/04/07 09:11:21;;;;;;;;;;;18.80;52.30;;;;;;5003899;28;20008;-63
2022/04/07 09:13:46;;;;;;;;;;;18.80;52.40;;;;;;5033879;28;19920;-62
2022/04/07 09:16:13;;;;;;;;;;;18.80;52.40;;;;;;5043775;28;20333;-63
2022/04/07 09:18:38;;;;;;;;;;;18.80;52.40;;;;;;5022799;28;20427;-62
2022/04/07 09:21:04;;;;;;;;;;;18.80;52.40;;;;;;5003208;28;19921;-58
2022/04/07 09:23:36;;;;;;;;;;;18.80;52.20;;;;;;5016949;28;19929;-64
2022/04/07 09:26:02;;;;;;;;;;;18.90;52.00;;;;;;5036032;28;19913;-64
2022/04/07 09:28:31;;;;;;;;;;;18.90;52.00;;;;;;5029088;28;20024;-64
2022/04/07 09:30:59;;;;;;;;;;;18.90;51.90;;;;;;5005232;28;20183;-65
2022/04/07 09:33:25;;;;;;;;;;;18.90;51.80;;;;;;5014863;28;19944;-64
2022/04/07 09:36:05;;;;;;;;;;;18.90;51.80;;;;;;5022731;28;19939;-62
2022/04/07 09:38:31;;;;;;;;;;;18.90;51.80;;;;;;5024182;28;20160;-64
2022/04/07 09:41:04;;;;;;;;;;;18.90;51.70;;;;;;5004966;28;19921;-62
2022/04/07 09:43:30;;;;;;;;;;;19.00;51.80;;;;;;5014055;28;19921;-63
2022/04/07 09:45:55;;;;;;;;;;;19.00;51.70;;;;;;5022433;28;19928;-62
2022/04/07 09:48:22;;;;;;;;;;;19.00;51.70;;;;;;5012677;28;20253;-63
2022/04/07 09:51:03;;;;;;;;;;;19.00;51.70;;;;;;5002554;28;19920;-64
2022/04/07 09:53:30;;;;;;;;;;;19.00;51.60;;;;;;5014390;28;19994;-63
2022/04/07 09:55:55;;;;;;;;;;;19.00;51.50;;;;;;5040961;28;20004;-62
2022/04/07 09:58:21;;;;;;;;;;;19.10;51.40;;;;;;5032180;28;19919;-65
2022/04/07 10:00:46;;;;;;;;;;;19.10;51.40;;;;;;5009335;28;19920;-63
2022/04/07 10:03:13;;;;;;;;;;;19.10;51.30;;;;;;5008616;28;20327;-63
2022/04/07 10:05:39;;;;;;;;;;;19.10;51.30;;;;;;5021457;28;19917;-62
2022/04/07 10:08:04;;;;;;;;;;;19.10;51.20;;;;;;5037682;28;20380;-62
2022/04/07 10:10:29;;;;;;;;;;;19.10;51.20;;;;;;5022339;28;19914;-60
2022/04/07 10:12:59;;;;;;;;;;;19.20;51.30;;;;;;5036757;28;19959;-62
2022/04/07 10:15:25;;;;;;;;;;;19.20;51.20;;;;;;5022335;28;20387;-62
2022/04/07 10:17:50;;;;;;;;;;;19.20;51.20;;;;;;5038115;28;19920;-63
2022/04/07 10:20:16;;;;;;;;;;;19.20;51.10;;;;;;5012607;28;20759;-64
2022/04/07 10:22:47;;;;;;;;;;;19.20;51.10;;;;;;5017362;28;19929;-63
2022/04/07 10:25:13;;;;;;;;;;;19.30;51.00;;;;;;5000682;28;19972;-56
2022/04/07 10:27:40;;;;;;;;;;;19.30;51.00;;;;;;5000933;28;19910;-63
2022/04/07 10:30:05;;;;;;;;;;;19.30;51.00;;;;;;5033566;28;19932;-62
2022/04/07 10:32:38;;;;;;;;;;;19.30;51.00;;;;;;5042002;28;20450;-64
2022/04/07 10:35:03;;;;;;;;;;;19.30;50.90;;;;;;5021202;28;20407;-63
2022/04/07 10:37:29;;;;;;;;;;;19.30;50.80;;;;;;5002351;28;20099;-64
2022/04/07 10:39:54;;;;;;;;;;;19.30;50.80;;;;;;5016664;28;20487;-64
2022/04/07 10:42:40;;;;;;;;;;;19.30;50.80;;;;;;5034804;28;19916;-63
2022/04/07 10:45:06;;;;;;;;;;;19.30;50.70;;;;;;5021841;28;19980;-62
2022/04/07 10:47:31;;;;;;;;;;;19.30;50.70;;;;;;5001985;28;19913;-63
2022/04/07 10:49:56;;;;;;;;;;;19.40;50.80;;;;;;5002855;28;19943;-63
2022/04/07 10:52:25;;;;;;;;;;;19.40;50.70;;;;;;5020477;28;19946;-63
2022/04/07 10:55:10;;;;;;;;;;;19.40;50.60;;;;;;5026101;28;19917;-64
2022/04/07 10:57:35;;;;;;;;;;;19.40;50.70;;;;;;5001692;28;19950;-63
2022/04/07 11:00:01;;;;;;;;;;;19.40;50.70;;;;;;5020198;28;19981;-62
2022/04/07 11:02:32;;;;;;;;;;;19.40;50.60;;;;;;5039685;28;19928;-63
2022/04/07 11:05:08;;;;;;;;;;;19.40;50.60;;;;;;5028342;28;19920;-64
2022/04/07 11:07:37;;;;;;;;;;;19.40;50.60;;;;;;5002771;28;19953;-64
2022/04/07 11:10:03;;;;;;;;;;;19.40;50.60;;;;;;5013146;28;20696;-64
2022/04/07 11:12:29;;;;;;;;;;;19.50;50.60;;;;;;5035699;28;20692;-62
2022/04/07 11:15:03;;;;;;;;;;;19.50;50.60;;;;;;5031070;28;19964;-52
2022/04/07 11:17:28;;;;;;;;;;;19.40;50.70;;;;;;5003415;28;20076;-64
2022/04/07 11:19:58;;;;;;;;;;;19.50;50.70;;;;;;5010208;28;19913;-62
2022/04/07 11:22:42;;;;;;;;;;;19.40;50.60;;;;;;5021856;28;19967;-65
2022/04/07 11:25:08;;;;;;;;;;;19.40;50.60;;;;;;5029467;28;19923;-62
2022/04/07 11:27:38;;;;;;;;;;;19.40;50.60;;;;;;5019581;28;20307;-63
2022/04/07 11:30:07;;;;;;;;;;;19.40;50.60;;;;;;5021544;28;19960;-58
2022/04/07 11:32:32;;;;;;;;;;;19.40;50.60;;;;;;5044091;28;19913;-52
2022/04/07 11:35:18;;;;;;;;;;;19.40;50.60;;;;;;5036599;28;20375;-62
2022/04/07 11:37:43;;;;;;;;;;;19.40;50.60;;;;;;5011061;28;20166;-62
2022/04/07 11:40:09;;;;;;;;;;;19.40;50.60;;;;;;5012006;28;20293;-61
2022/04/07 11:42:35;;;;;;;;;;;19.40;50.70;;;;;;5039969;28;19925;-55
2022/04/07 11:45:01;;;;;;;;;;;19.40;50.60;;;;;;5036028;28;19924;-65
2022/04/07 11:47:34;;;;;;;;;;;19.40;50.70;;;;;;5009971;28;19918;-64
2022/04/07 11:50:00;;;;;;;;;;;19.40;50.70;;;;;;5010690;28;20385;-62
2022/04/07 11:52:26;;;;;;;;;;;19.40;50.70;;;;;;5024529;28;20015;-63
2022/04/07 11:54:52;;;;;;;;;;;19.40;50.70;;;;;;5032934;28;19917;-62
2022/04/07 11:57:17;;;;;;;;;;;19.40;50.80;;;;;;5015668;28;20310;-63
2022/04/07 11:59:43;;;;;;;;;;;19.40;50.70;;;;;;5038946;28;19928;-60
2022/04/07 12:02:08;;;;;;;;;;;19.40;50.80;;;;;;5040679;28;19920;-63
2022/04/07 12:04:34;;;;;;;;;;;19.40;50.80;;;;;;5043472;28;20287;-62
2022/04/07 12:07:00;;;;;;;;;;;19.40;50.70;;;;;;5018470;28;20335;-62
2022/04/07 12:09:26;;;;;;;;;;;19.40;50.70;;;;;;5004071;28;19918;-63
2022/04/07 12:11:51;;;;;;;;;;;19.40;50.70;;;;;;5023287;28;19914;-62
2022/04/07 12:14:17;;;;;;;;;;;19.40;50.70;;;;;;5022935;28;19917;-61
2022/04/07 12:16:46;;;;;;;;;;;19.40;50.70;;;;;;5021608;28;19967;-60
2022/04/07 12:19:11;;;;;;;;;;;19.40;50.60;;;;;;5004280;28;19918;-64
2022/04/07 12:22:09;;;;;;;;;;;19.40;50.70;;;;;;5039544;28;19971;-63
2022/04/07 12:24:34;;;;;;;;;;;19.40;50.70;;;;;;4998760;28;19986;-61
2022/04/07 12:27:00;;;;;;;;;;;19.40;50.60;;;;;;5025757;28;20375;-63
2022/04/07 12:29:26;;;;;;;;;;;19.40;50.60;;;;;;5023372;28;19935;-63
2022/04/07 12:31:59;;;;;;;;;;;19.40;50.60;;;;;;5040227;28;19920;-62
2022/04/07 12:34:25;;;;;;;;;;;19.40;50.60;;;;;;5042706;28;19913;-62
2022/04/07 12:36:51;;;;;;;;;;;19.40;50.70;;;;;;5028334;28;19913;-61
2022/04/07 12:39:17;;;;;;;;;;;19.40;50.60;;;;;;5023514;28;20205;-61
2022/04/07 12:41:43;;;;;;;;;;;19.50;50.60;;;;;;5037908;28;20504;-61
2022/04/07 12:44:09;;;;;;;;;;;19.50;50.80;;;;;;5043616;28;19921;-62
2022/04/07 12:46:51;;;;;;;;;;;19.50;50.70;;;;;;5030712;28;19974;-62
2022/04/07 12:49:23;;;;;;;;;;;19.40;50.60;;;;;;5023283;28;19917;-57
2022/04/07 12:51:59;;;;;;;;;;;19.40;50.70;;;;;;5037081;28;19936;-64
2022/04/07 12:54:24;;;;;;;;;;;19.50;50.80;;;;;;5043504;28;19915;-62
2022/04/07 12:56:49;;;;;;;;;;;19.40;50.70;;;;;;5030003;28;20184;-62
2022/04/07 12:59:15;;;;;;;;;;;19.50;50.70;;;;;;5023481;28;19921;-58
2022/04/07 13:01:41;;;;;;;;;;;19.50;50.80;;;;;;5034091;28;19916;-64
2022/04/07 13:04:08;;;;;;;;;;;19.50;50.80;;;;;;5043893;28;19927;-61
2022/04/07 13:06:37;;;;;;;;;;;19.50;50.70;;;;;;5034233;28;19913;-62
2022/04/07 13:09:03;;;;;;;;;;;19.50;50.70;;;;;;5023277;28;19913;-58
2022/04/07 13:11:32;;;;;;;;;;;19.50;50.70;;;;;;5030866;28;20431;-63
2022/04/07 13:13:57;;;;;;;;;;;19.50;50.60;;;;;;5042919;28;20120;-62
2022/04/07 13:16:23;;;;;;;;;;;19.50;50.70;;;;;;5037009;28;20332;-62
2022/04/07 13:18:48;;;;;;;;;;;19.50;50.60;;;;;;5022774;28;19910;-63
2022/04/07 13:21:15;;;;;;;;;;;19.50;50.60;;;;;;5028013;28;19979;-62
2022/04/07 13:23:40;;;;;;;;;;;19.50;50.60;;;;;;5042521;28;19921;-63
2022/04/07 13:26:06;;;;;;;;;;;19.50;50.60;;;;;;5040610;28;19928;-61
2022/04/07 13:28:31;;;;;;;;;;;19.50;50.60;;;;;;5022342;28;20379;-64
2022/04/07 13:30:57;;;;;;;;;;;19.50;50.60;;;;;;5023945;28;19971;-62
2022/04/07 13:33:23;;;;;;;;;;;19.50;50.60;;;;;;5042065;28;20372;-63
2022/04/07 13:35:50;;;;;;;;;;;19.50;50.60;;;;;;5041715;28;20455;-62
2022/04/07 13:38:16;;;;;;;;;;;19.50;50.60;;;;;;5023307;28;20229;-63
2022/04/07 13:40:42;;;;;;;;;;;19.50;50.60;;;;;;5022393;28;20899;-61
2022/04/07 13:43:07;;;;;;;;;;;19.50;50.60;;;;;;5039710;28;19924;-61
2022/04/07 13:45:33;;;;;;;;;;;19.50;50.60;;;;;;5040865;28;21879;-61
2022/04/07 13:47:58;;;;;;;;;;;19.50;50.60;;;;;;5028350;28;19917;-63
2022/04/07 13:50:24;;;;;;;;;;;19.50;50.50;;;;;;5022580;28;19917;-64
2022/04/07 13:52:49;;;;;;;;;;;19.50;50.60;;;;;;5036807;28;19917;-62
2022/04/07 13:55:15;;;;;;;;;;;19.50;50.50;;;;;;5045355;28;19917;-60
2022/04/07 13:57:40;;;;;;;;;;;19.50;50.50;;;;;;5031216;28;19924;-64
2022/04/07 14:00:06;;;;;;;;;;;19.50;50.60;;;;;;5022210;28;20454;-64
2022/04/07 14:02:31;;;;;;;;;;;19.50;50.50;;;;;;5024332;28;19920;-59
2022/04/07 14:04:57;;;;;;;;;;;19.60;50.60;;;;;;5042477;28;20218;-60
2022/04/07 14:07:22;;;;;;;;;;;19.50;50.50;;;;;;5034558;28;20252;-61
2022/04/07 14:09:48;;;;;;;;;;;19.50;50.50;;;;;;5021785;28;19915;-62
2022/04/07 14:12:14;;;;;;;;;;;19.60;50.60;;;;;;5022246;28;20327;-62